sensor_id;sensor_type;location;lat;lon;timestamp;P1;durP1;ratioP1;P2;durP2;ratioP2
56794;SDS011;42678;59.400;18.410;2022-11-03T00:02:02;26.58;;;11.10;;
56794;SDS011;42678;59.400;18.410;2022-11-03T00:04:28;24.70;;;11.32;;
56794;SDS011;42678;59.400;18.410;2022-11-03T00:06:53;23.52;;;10.07;;
56794;SDS011;42678;59.400;18.410;2022-11-03T00:09:20;26.70;;;10.18;;
56794;SDS011;42678;59.400;18.410;2022-11-03T00:11:47;23.80;;;11.13;;
56794;SDS011;42678;59.400;18.410;2022-11-03T00:14:17;23.77;;;10.68;;
56794;SDS011;42678;59.400;18.410;2022-11-03T00:16:43;26.20;;;10.68;;
56794;SDS011;42678;59.400;18.410;2022-11-03T00:19:10;26.38;;;10.95;;
56794;SDS011;42678;59.400;18.410;2022-11-03T00:21:36;23.67;;;11.45;;
56794;SDS011;42678;59.400;18.410;2022-11-03T00:24:02;23.77;;;11.90;;
56794;SDS011;42678;59.400;18.410;2022-11-03T00:26:29;20.60;;;11.07;;
56794;SDS011;42678;59.400;18.410;2022-11-03T00:28:57;25.23;;;10.57;;
56794;SDS011;42678;59.400;18.410;2022-11-03T00:31:28;28.95;;;11.50;;
56794;SDS011;42678;59.400;18.410;2022-11-03T00:33:55;28.98;;;11.50;;
56794;SDS011;42678;59.400;18.410;2022-11-03T00:36:24;28.20;;;12.25;;
56794;SDS011;42678;59.400;18.410;2022-11-03T00:38:52;18.58;;;10.85;;
56794;SDS011;42678;59.400;18.410;2022-11-03T00:41:18;23.77;;;11.55;;
56794;SDS011;42678;59.400;18.410;2022-11-03T00:43:45;29.23;;;10.88;;
56794;SDS011;42678;59.400;18.410;2022-11-03T00:46:11;21.67;;;10.38;;
56794;SDS011;42678;59.400;18.410;2022-11-03T00:48:38;24.10;;;11.90;;
56794;SDS011;42678;59.400;18.410;2022-11-03T00:53:32;24.48;;;11.00;;
56794;SDS011;42678;59.400;18.410;2022-11-03T00:56:00;18.63;;;9.02;;
56794;SDS011;42678;59.400;18.410;2022-11-03T00:58:26;20.40;;;10.38;;
56794;SDS011;42678;59.400;18.410;2022-11-03T01:00:59;23.58;;;9.05;;
56794;SDS011;42678;59.400;18.410;2022-11-03T01:03:26;20.58;;;9.48;;
56794;SDS011;42678;59.400;18.410;2022-11-03T01:05:52;20.17;;;9.05;;
56794;SDS011;42678;59.400;18.410;2022-11-03T01:08:36;20.67;;;9.45;;
56794;SDS011;42678;59.400;18.410;2022-11-03T01:11:08;20.63;;;9.77;;
56794;SDS011;42678;59.400;18.410;2022-11-03T01:13:54;19.67;;;8.57;;
56794;SDS011;42678;59.400;18.410;2022-11-03T01:16:19;22.55;;;8.18;;
56794;SDS011;42678;59.400;18.410;2022-11-03T01:18:46;15.40;;;7.93;;
56794;SDS011;42678;59.400;18.410;2022-11-03T01:21:12;14.27;;;7.95;;
56794;SDS011;42678;59.400;18.410;2022-11-03T01:23:37;16.98;;;8.35;;
56794;SDS011;42678;59.400;18.410;2022-11-03T01:26:06;15.85;;;8.77;;
56794;SDS011;42678;59.400;18.410;2022-11-03T01:28:33;15.77;;;8.25;;
56794;SDS011;42678;59.400;18.410;2022-11-03T01:31:32;17.52;;;7.82;;
56794;SDS011;42678;59.400;18.410;2022-11-03T01:33:52;16.95;;;8.40;;
56794;SDS011;42678;59.400;18.410;2022-11-03T01:36:19;23.92;;;9.02;;
56794;SDS011;42678;59.400;18.410;2022-11-03T01:38:45;19.77;;;7.78;;
56794;SDS011;42678;59.400;18.410;2022-11-03T01:41:13;17.17;;;8.25;;
56794;SDS011;42678;59.400;18.410;2022-11-03T01:43:41;18.20;;;8.10;;
56794;SDS011;42678;59.400;18.410;2022-11-03T01:48:40;17.58;;;7.35;;
56794;SDS011;42678;59.400;18.410;2022-11-03T01:51:10;15.70;;;7.60;;
56794;SDS011;42678;59.400;18.410;2022-11-03T01:53:40;13.93;;;6.78;;
56794;SDS011;42678;59.400;18.410;2022-11-03T01:56:08;20.92;;;5.65;;
56794;SDS011;42678;59.400;18.410;2022-11-03T01:58:35;14.52;;;6.47;;
56794;SDS011;42678;59.400;18.410;2022-11-03T02:01:04;16.00;;;6.47;;
56794;SDS011;42678;59.400;18.410;2022-11-03T02:03:33;16.63;;;7.00;;
56794;SDS011;42678;59.400;18.410;2022-11-03T02:06:02;19.50;;;7.30;;
56794;SDS011;42678;59.400;18.410;2022-11-03T02:08:35;14.82;;;6.35;;
56794;SDS011;42678;59.400;18.410;2022-11-03T02:11:05;15.90;;;6.43;;
56794;SDS011;42678;59.400;18.410;2022-11-03T02:14:00;15.70;;;7.05;;
56794;SDS011;42678;59.400;18.410;2022-11-03T02:16:26;18.35;;;7.78;;
56794;SDS011;42678;59.400;18.410;2022-11-03T02:18:55;21.85;;;8.50;;
56794;SDS011;42678;59.400;18.410;2022-11-03T02:23:58;16.02;;;7.78;;
56794;SDS011;42678;59.400;18.410;2022-11-03T02:26:26;16.52;;;6.95;;
56794;SDS011;42678;59.400;18.410;2022-11-03T02:28:52;18.45;;;7.07;;
56794;SDS011;42678;59.400;18.410;2022-11-03T02:34:05;14.20;;;6.60;;
56794;SDS011;42678;59.400;18.410;2022-11-03T02:39:15;18.83;;;7.43;;
56794;SDS011;42678;59.400;18.410;2022-11-03T02:41:45;21.67;;;8.90;;
56794;SDS011;42678;59.400;18.410;2022-11-03T02:44:14;19.63;;;7.68;;
56794;SDS011;42678;59.400;18.410;2022-11-03T02:46:42;19.33;;;7.20;;
56794;SDS011;42678;59.400;18.410;2022-11-03T02:49:09;18.40;;;8.77;;
56794;SDS011;42678;59.400;18.410;2022-11-03T02:51:34;19.08;;;8.23;;
56794;SDS011;42678;59.400;18.410;2022-11-03T02:54:10;23.95;;;9.13;;
56794;SDS011;42678;59.400;18.410;2022-11-03T02:56:44;18.08;;;8.18;;
56794;SDS011;42678;59.400;18.410;2022-11-03T02:59:19;21.92;;;9.45;;
56794;SDS011;42678;59.400;18.410;2022-11-03T03:02:03;18.63;;;8.15;;
56794;SDS011;42678;59.400;18.410;2022-11-03T03:04:36;21.13;;;9.38;;
56794;SDS011;42678;59.400;18.410;2022-11-03T03:07:05;25.25;;;9.93;;
56794;SDS011;42678;59.400;18.410;2022-11-03T03:09:56;21.38;;;9.05;;
56794;SDS011;42678;59.400;18.410;2022-11-03T03:12:26;27.42;;;9.93;;
56794;SDS011;42678;59.400;18.410;2022-11-03T03:14:55;26.80;;;9.50;;
56794;SDS011;42678;59.400;18.410;2022-11-03T03:17:23;18.88;;;7.45;;
56794;SDS011;42678;59.400;18.410;2022-11-03T03:20:15;20.88;;;7.70;;
56794;SDS011;42678;59.400;18.410;2022-11-03T03:22:54;23.67;;;7.63;;
56794;SDS011;42678;59.400;18.410;2022-11-03T03:25:27;14.77;;;6.90;;
56794;SDS011;42678;59.400;18.410;2022-11-03T03:27:59;21.67;;;6.47;;
56794;SDS011;42678;59.400;18.410;2022-11-03T03:30:32;19.73;;;6.90;;
56794;SDS011;42678;59.400;18.410;2022-11-03T03:33:00;18.67;;;7.65;;
56794;SDS011;42678;59.400;18.410;2022-11-03T03:35:28;17.83;;;6.63;;
56794;SDS011;42678;59.400;18.410;2022-11-03T03:37:56;15.40;;;6.88;;
56794;SDS011;42678;59.400;18.410;2022-11-03T03:40:31;14.85;;;6.55;;
56794;SDS011;42678;59.400;18.410;2022-11-03T03:43:01;20.73;;;6.55;;
56794;SDS011;42678;59.400;18.410;2022-11-03T03:45:30;19.95;;;6.45;;
56794;SDS011;42678;59.400;18.410;2022-11-03T03:47:57;15.57;;;5.93;;
56794;SDS011;42678;59.400;18.410;2022-11-03T03:50:24;12.27;;;5.60;;
56794;SDS011;42678;59.400;18.410;2022-11-03T03:52:56;13.35;;;5.22;;
56794;SDS011;42678;59.400;18.410;2022-11-03T03:55:25;14.63;;;5.05;;
56794;SDS011;42678;59.400;18.410;2022-11-03T03:58:08;11.73;;;4.32;;
56794;SDS011;42678;59.400;18.410;2022-11-03T04:00:37;12.75;;;5.82;;
56794;SDS011;42678;59.400;18.410;2022-11-03T04:03:04;20.17;;;4.90;;
56794;SDS011;42678;59.400;18.410;2022-11-03T04:05:30;17.10;;;5.15;;
56794;SDS011;42678;59.400;18.410;2022-11-03T04:07:56;12.30;;;5.05;;
56794;SDS011;42678;59.400;18.410;2022-11-03T04:10:23;12.00;;;4.90;;
56794;SDS011;42678;59.400;18.410;2022-11-03T04:12:49;18.70;;;5.53;;
56794;SDS011;42678;59.400;18.410;2022-11-03T04:15:34;14.65;;;5.00;;
56794;SDS011;42678;59.400;18.410;2022-11-03T04:18:16;15.13;;;5.85;;
56794;SDS011;42678;59.400;18.410;2022-11-03T04:21:00;18.48;;;5.47;;
56794;SDS011;42678;59.400;18.410;2022-11-03T04:23:44;20.05;;;5.63;;
56794;SDS011;42678;59.400;18.410;2022-11-03T04:26:11;17.58;;;5.20;;
56794;SDS011;42678;59.400;18.410;2022-11-03T04:28:41;15.68;;;5.53;;
56794;SDS011;42678;59.400;18.410;2022-11-03T04:31:11;19.23;;;5.43;;
56794;SDS011;42678;59.400;18.410;2022-11-03T04:33:38;14.48;;;5.53;;
56794;SDS011;42678;59.400;18.410;2022-11-03T04:36:21;15.82;;;5.28;;
56794;SDS011;42678;59.400;18.410;2022-11-03T04:38:49;12.68;;;4.85;;
56794;SDS011;42678;59.400;18.410;2022-11-03T04:41:17;18.35;;;5.65;;
56794;SDS011;42678;59.400;18.410;2022-11-03T04:43:45;16.70;;;5.07;;
56794;SDS011;42678;59.400;18.410;2022-11-03T04:46:12;17.10;;;5.25;;
56794;SDS011;42678;59.400;18.410;2022-11-03T04:48:40;14.40;;;5.50;;
56794;SDS011;42678;59.400;18.410;2022-11-03T04:51:12;14.05;;;5.20;;
56794;SDS011;42678;59.400;18.410;2022-11-03T04:53:47;14.57;;;4.90;;
56794;SDS011;42678;59.400;18.410;2022-11-03T04:56:15;18.00;;;5.72;;
56794;SDS011;42678;59.400;18.410;2022-11-03T04:58:44;17.38;;;5.72;;
56794;SDS011;42678;59.400;18.410;2022-11-03T05:01:12;14.00;;;5.10;;
56794;SDS011;42678;59.400;18.410;2022-11-03T05:03:39;11.07;;;4.65;;
56794;SDS011;42678;59.400;18.410;2022-11-03T05:06:17;19.13;;;5.15;;
56794;SDS011;42678;59.400;18.410;2022-11-03T05:08:45;21.15;;;5.25;;
56794;SDS011;42678;59.400;18.410;2022-11-03T05:11:33;15.88;;;5.00;;
56794;SDS011;42678;59.400;18.410;2022-11-03T05:14:22;15.75;;;5.90;;
56794;SDS011;42678;59.400;18.410;2022-11-03T05:16:52;19.23;;;5.45;;
56794;SDS011;42678;59.400;18.410;2022-11-03T05:21:58;14.32;;;4.82;;
56794;SDS011;42678;59.400;18.410;2022-11-03T05:24:26;20.42;;;5.55;;
56794;SDS011;42678;59.400;18.410;2022-11-03T05:26:54;17.35;;;5.30;;
56794;SDS011;42678;59.400;18.410;2022-11-03T05:29:25;15.43;;;5.20;;
56794;SDS011;42678;59.400;18.410;2022-11-03T05:31:54;14.18;;;4.75;;
56794;SDS011;42678;59.400;18.410;2022-11-03T05:34:27;19.63;;;5.95;;
56794;SDS011;42678;59.400;18.410;2022-11-03T05:36:55;15.13;;;5.35;;
56794;SDS011;42678;59.400;18.410;2022-11-03T05:39:42;15.65;;;4.80;;
56794;SDS011;42678;59.400;18.410;2022-11-03T05:42:23;19.98;;;5.57;;
56794;SDS011;42678;59.400;18.410;2022-11-03T05:44:54;16.88;;;7.30;;
56794;SDS011;42678;59.400;18.410;2022-11-03T05:47:25;20.80;;;6.15;;
56794;SDS011;42678;59.400;18.410;2022-11-03T05:50:08;17.25;;;5.47;;
56794;SDS011;42678;59.400;18.410;2022-11-03T05:52:43;14.82;;;5.78;;
56794;SDS011;42678;59.400;18.410;2022-11-03T05:55:21;21.70;;;6.95;;
56794;SDS011;42678;59.400;18.410;2022-11-03T05:57:56;14.02;;;5.07;;
56794;SDS011;42678;59.400;18.410;2022-11-03T06:00:46;13.23;;;5.90;;
56794;SDS011;42678;59.400;18.410;2022-11-03T06:03:22;20.60;;;5.57;;
56794;SDS011;42678;59.400;18.410;2022-11-03T06:05:49;22.63;;;6.35;;
56794;SDS011;42678;59.400;18.410;2022-11-03T06:08:21;12.98;;;5.40;;
56794;SDS011;42678;59.400;18.410;2022-11-03T06:10:52;20.30;;;6.22;;
56794;SDS011;42678;59.400;18.410;2022-11-03T06:13:20;18.27;;;5.63;;
56794;SDS011;42678;59.400;18.410;2022-11-03T06:15:50;12.95;;;6.03;;
56794;SDS011;42678;59.400;18.410;2022-11-03T06:18:22;23.42;;;6.05;;
56794;SDS011;42678;59.400;18.410;2022-11-03T06:20:52;17.70;;;5.97;;
56794;SDS011;42678;59.400;18.410;2022-11-03T06:23:22;17.58;;;6.03;;
56794;SDS011;42678;59.400;18.410;2022-11-03T06:25:48;17.35;;;5.85;;
56794;SDS011;42678;59.400;18.410;2022-11-03T06:28:17;18.27;;;5.80;;
56794;SDS011;42678;59.400;18.410;2022-11-03T06:30:47;15.57;;;5.50;;
56794;SDS011;42678;59.400;18.410;2022-11-03T06:33:24;22.90;;;5.97;;
56794;SDS011;42678;59.400;18.410;2022-11-03T06:35:57;18.40;;;5.82;;
56794;SDS011;42678;59.400;18.410;2022-11-03T06:38:29;19.30;;;7.18;;
56794;SDS011;42678;59.400;18.410;2022-11-03T06:40:57;28.40;;;10.07;;
56794;SDS011;42678;59.400;18.410;2022-11-03T06:46:18;22.40;;;6.53;;
56794;SDS011;42678;59.400;18.410;2022-11-03T06:48:46;18.52;;;5.45;;
56794;SDS011;42678;59.400;18.410;2022-11-03T06:51:24;16.35;;;4.70;;
56794;SDS011;42678;59.400;18.410;2022-11-03T06:53:54;15.07;;;4.10;;
56794;SDS011;42678;59.400;18.410;2022-11-03T06:56:33;14.93;;;5.03;;
56794;SDS011;42678;59.400;18.410;2022-11-03T06:59:01;16.00;;;4.80;;
56794;SDS011;42678;59.400;18.410;2022-11-03T07:01:30;12.52;;;5.18;;
56794;SDS011;42678;59.400;18.410;2022-11-03T07:03:58;15.43;;;4.70;;
56794;SDS011;42678;59.400;18.410;2022-11-03T07:06:30;17.05;;;6.13;;
56794;SDS011;42678;59.400;18.410;2022-11-03T07:09:00;12.00;;;3.80;;
56794;SDS011;42678;59.400;18.410;2022-11-03T07:11:31;18.30;;;4.65;;
56794;SDS011;42678;59.400;18.410;2022-11-03T07:14:08;21.20;;;4.47;;
56794;SDS011;42678;59.400;18.410;2022-11-03T07:16:45;16.40;;;3.65;;
56794;SDS011;42678;59.400;18.410;2022-11-03T07:24:17;11.63;;;4.05;;
56794;SDS011;42678;59.400;18.410;2022-11-03T07:26:53;16.23;;;3.35;;
56794;SDS011;42678;59.400;18.410;2022-11-03T07:29:24;11.18;;;3.65;;
56794;SDS011;42678;59.400;18.410;2022-11-03T07:31:52;14.15;;;3.70;;
56794;SDS011;42678;59.400;18.410;2022-11-03T07:34:19;14.05;;;4.03;;
56794;SDS011;42678;59.400;18.410;2022-11-03T07:36:48;15.57;;;4.07;;
56794;SDS011;42678;59.400;18.410;2022-11-03T07:39:17;20.17;;;4.28;;
56794;SDS011;42678;59.400;18.410;2022-11-03T07:41:44;17.02;;;4.32;;
56794;SDS011;42678;59.400;18.410;2022-11-03T07:44:12;12.30;;;3.53;;
56794;SDS011;42678;59.400;18.410;2022-11-03T07:46:44;22.92;;;4.05;;
56794;SDS011;42678;59.400;18.410;2022-11-03T07:49:27;13.25;;;3.53;;
56794;SDS011;42678;59.400;18.410;2022-11-03T07:51:55;21.00;;;4.38;;
56794;SDS011;42678;59.400;18.410;2022-11-03T07:54:24;15.98;;;4.15;;
56794;SDS011;42678;59.400;18.410;2022-11-03T07:59:31;18.23;;;5.75;;
56794;SDS011;42678;59.400;18.410;2022-11-03T08:01:59;15.93;;;3.53;;
56794;SDS011;42678;59.400;18.410;2022-11-03T08:04:30;16.40;;;6.05;;
56794;SDS011;42678;59.400;18.410;2022-11-03T08:07:00;16.88;;;4.30;;
56794;SDS011;42678;59.400;18.410;2022-11-03T08:09:25;13.15;;;3.38;;
56794;SDS011;42678;59.400;18.410;2022-11-03T08:11:51;20.15;;;6.35;;
56794;SDS011;42678;59.400;18.410;2022-11-03T08:14:17;23.15;;;3.85;;
56794;SDS011;42678;59.400;18.410;2022-11-03T08:16:43;13.48;;;3.70;;
56794;SDS011;42678;59.400;18.410;2022-11-03T08:19:08;14.07;;;4.10;;
56794;SDS011;42678;59.400;18.410;2022-11-03T08:21:34;11.75;;;3.67;;
56794;SDS011;42678;59.400;18.410;2022-11-03T08:24:00;14.95;;;3.55;;
56794;SDS011;42678;59.400;18.410;2022-11-03T08:26:26;18.02;;;3.75;;
56794;SDS011;42678;59.400;18.410;2022-11-03T08:28:52;21.58;;;3.53;;
56794;SDS011;42678;59.400;18.410;2022-11-03T08:31:18;15.27;;;3.30;;
56794;SDS011;42678;59.400;18.410;2022-11-03T08:33:43;14.35;;;3.35;;
56794;SDS011;42678;59.400;18.410;2022-11-03T08:36:09;26.98;;;5.80;;
56794;SDS011;42678;59.400;18.410;2022-11-03T08:38:35;20.27;;;5.32;;
56794;SDS011;42678;59.400;18.410;2022-11-03T08:41:01;17.98;;;3.63;;
56794;SDS011;42678;59.400;18.410;2022-11-03T08:43:27;18.05;;;3.55;;
56794;SDS011;42678;59.400;18.410;2022-11-03T08:45:53;14.32;;;4.63;;
56794;SDS011;42678;59.400;18.410;2022-11-03T08:48:22;19.50;;;4.00;;
56794;SDS011;42678;59.400;18.410;2022-11-03T08:50:51;17.67;;;3.85;;
56794;SDS011;42678;59.400;18.410;2022-11-03T08:53:22;13.48;;;2.47;;
56794;SDS011;42678;59.400;18.410;2022-11-03T08:55:49;15.77;;;3.15;;
56794;SDS011;42678;59.400;18.410;2022-11-03T08:58:14;15.65;;;4.20;;
56794;SDS011;42678;59.400;18.410;2022-11-03T09:00:40;15.75;;;4.15;;
56794;SDS011;42678;59.400;18.410;2022-11-03T09:03:06;21.15;;;3.55;;
56794;SDS011;42678;59.400;18.410;2022-11-03T09:05:38;15.13;;;4.20;;
56794;SDS011;42678;59.400;18.410;2022-11-03T09:08:04;13.73;;;3.10;;
56794;SDS011;42678;59.400;18.410;2022-11-03T09:10:30;17.63;;;4.47;;
56794;SDS011;42678;59.400;18.410;2022-11-03T09:12:55;17.98;;;2.60;;
56794;SDS011;42678;59.400;18.410;2022-11-03T09:15:21;27.75;;;6.80;;
56794;SDS011;42678;59.400;18.410;2022-11-03T09:17:47;16.45;;;3.05;;
56794;SDS011;42678;59.400;18.410;2022-11-03T09:20:12;19.75;;;10.50;;
56794;SDS011;42678;59.400;18.410;2022-11-03T09:22:38;11.68;;;2.53;;
56794;SDS011;42678;59.400;18.410;2022-11-03T09:25:04;15.05;;;3.15;;
56794;SDS011;42678;59.400;18.410;2022-11-03T09:27:30;21.35;;;3.40;;
56794;SDS011;42678;59.400;18.410;2022-11-03T09:29:56;17.33;;;3.38;;
56794;SDS011;42678;59.400;18.410;2022-11-03T09:32:22;11.32;;;2.63;;
56794;SDS011;42678;59.400;18.410;2022-11-03T09:34:48;10.70;;;2.67;;
56794;SDS011;42678;59.400;18.410;2022-11-03T09:37:13;9.63;;;2.80;;
56794;SDS011;42678;59.400;18.410;2022-11-03T09:39:40;11.38;;;2.40;;
56794;SDS011;42678;59.400;18.410;2022-11-03T09:42:07;13.70;;;2.78;;
56794;SDS011;42678;59.400;18.410;2022-11-03T09:44:34;12.45;;;3.60;;
56794;SDS011;42678;59.400;18.410;2022-11-03T09:47:01;12.60;;;3.03;;
56794;SDS011;42678;59.400;18.410;2022-11-03T09:49:30;13.30;;;2.55;;
56794;SDS011;42678;59.400;18.410;2022-11-03T09:51:58;11.07;;;2.80;;
56794;SDS011;42678;59.400;18.410;2022-11-03T09:54:26;20.90;;;3.92;;
56794;SDS011;42678;59.400;18.410;2022-11-03T09:56:55;16.75;;;4.40;;
56794;SDS011;42678;59.400;18.410;2022-11-03T09:59:23;11.27;;;3.58;;
56794;SDS011;42678;59.400;18.410;2022-11-03T10:01:49;12.57;;;3.17;;
56794;SDS011;42678;59.400;18.410;2022-11-03T10:04:26;11.95;;;1.92;;
56794;SDS011;42678;59.400;18.410;2022-11-03T10:06:56;10.55;;;2.10;;
56794;SDS011;42678;59.400;18.410;2022-11-03T10:09:23;9.30;;;2.70;;
56794;SDS011;42678;59.400;18.410;2022-11-03T10:11:52;12.90;;;3.25;;
56794;SDS011;42678;59.400;18.410;2022-11-03T10:14:19;15.40;;;3.17;;
56794;SDS011;42678;59.400;18.410;2022-11-03T10:16:52;10.18;;;2.50;;
56794;SDS011;42678;59.400;18.410;2022-11-03T10:19:22;8.80;;;2.42;;
56794;SDS011;42678;59.400;18.410;2022-11-03T10:21:48;10.35;;;3.10;;
56794;SDS011;42678;59.400;18.410;2022-11-03T10:24:15;14.82;;;2.28;;
56794;SDS011;42678;59.400;18.410;2022-11-03T10:26:42;10.98;;;2.97;;
56794;SDS011;42678;59.400;18.410;2022-11-03T10:29:17;11.18;;;4.00;;
56794;SDS011;42678;59.400;18.410;2022-11-03T10:31:48;13.25;;;3.08;;
56794;SDS011;42678;59.400;18.410;2022-11-03T10:37:13;13.35;;;5.45;;
56794;SDS011;42678;59.400;18.410;2022-11-03T10:39:46;10.13;;;2.33;;
56794;SDS011;42678;59.400;18.410;2022-11-03T10:42:20;10.02;;;1.88;;
56794;SDS011;42678;59.400;18.410;2022-11-03T10:45:09;8.52;;;2.20;;
56794;SDS011;42678;59.400;18.410;2022-11-03T10:47:41;13.98;;;2.20;;
56794;SDS011;42678;59.400;18.410;2022-11-03T10:50:16;9.00;;;2.00;;
56794;SDS011;42678;59.400;18.410;2022-11-03T10:52:49;19.38;;;3.42;;
56794;SDS011;42678;59.400;18.410;2022-11-03T10:55:15;15.30;;;2.42;;
56794;SDS011;42678;59.400;18.410;2022-11-03T10:57:42;8.50;;;2.00;;
56794;SDS011;42678;59.400;18.410;2022-11-03T11:00:12;9.30;;;2.17;;
56794;SDS011;42678;59.400;18.410;2022-11-03T11:02:42;16.80;;;2.60;;
56794;SDS011;42678;59.400;18.410;2022-11-03T11:07:42;11.23;;;2.20;;
56794;SDS011;42678;59.400;18.410;2022-11-03T11:13:03;14.63;;;2.75;;
56794;SDS011;42678;59.400;18.410;2022-11-03T11:15:59;14.43;;;3.22;;
56794;SDS011;42678;59.400;18.410;2022-11-03T11:20:52;11.82;;;2.38;;
56794;SDS011;42678;59.400;18.410;2022-11-03T11:26:05;12.23;;;2.38;;
56794;SDS011;42678;59.400;18.410;2022-11-03T11:28:31;17.45;;;1.92;;
56794;SDS011;42678;59.400;18.410;2022-11-03T11:30:57;9.52;;;2.08;;
56794;SDS011;42678;59.400;18.410;2022-11-03T11:33:24;11.30;;;2.03;;
56794;SDS011;42678;59.400;18.410;2022-11-03T11:41:15;14.40;;;2.58;;
56794;SDS011;42678;59.400;18.410;2022-11-03T11:43:41;12.18;;;2.70;;
56794;SDS011;42678;59.400;18.410;2022-11-03T11:51:31;9.60;;;2.03;;
56794;SDS011;42678;59.400;18.410;2022-11-03T11:53:58;11.70;;;2.05;;
56794;SDS011;42678;59.400;18.410;2022-11-03T11:56:23;14.40;;;3.00;;
56794;SDS011;42678;59.400;18.410;2022-11-03T11:58:50;17.73;;;2.53;;
56794;SDS011;42678;59.400;18.410;2022-11-03T12:01:29;14.35;;;2.25;;
56794;SDS011;42678;59.400;18.410;2022-11-03T12:03:59;10.75;;;1.92;;
56794;SDS011;42678;59.400;18.410;2022-11-03T12:06:32;9.20;;;2.13;;
56794;SDS011;42678;59.400;18.410;2022-11-03T12:11:55;9.13;;;1.50;;
56794;SDS011;42678;59.400;18.410;2022-11-03T12:19:39;15.20;;;1.95;;
56794;SDS011;42678;59.400;18.410;2022-11-03T12:22:10;11.90;;;2.22;;
56794;SDS011;42678;59.400;18.410;2022-11-03T12:24:46;11.20;;;1.88;;
56794;SDS011;42678;59.400;18.410;2022-11-03T12:29:53;18.73;;;2.63;;
56794;SDS011;42678;59.400;18.410;2022-11-03T12:32:26;12.00;;;2.17;;
56794;SDS011;42678;59.400;18.410;2022-11-03T12:34:52;7.78;;;1.98;;
56794;SDS011;42678;59.400;18.410;2022-11-03T12:37:19;12.18;;;1.83;;
56794;SDS011;42678;59.400;18.410;2022-11-03T12:39:45;7.85;;;1.30;;
56794;SDS011;42678;59.400;18.410;2022-11-03T12:42:11;10.02;;;2.05;;
56794;SDS011;42678;59.400;18.410;2022-11-03T12:44:36;12.80;;;2.22;;
56794;SDS011;42678;59.400;18.410;2022-11-03T12:47:02;12.88;;;2.15;;
56794;SDS011;42678;59.400;18.410;2022-11-03T12:49:28;11.35;;;2.22;;
56794;SDS011;42678;59.400;18.410;2022-11-03T12:51:54;12.50;;;3.03;;
56794;SDS011;42678;59.400;18.410;2022-11-03T12:54:20;9.73;;;1.58;;
56794;SDS011;42678;59.400;18.410;2022-11-03T12:56:45;13.77;;;2.00;;
56794;SDS011;42678;59.400;18.410;2022-11-03T12:59:11;6.40;;;1.98;;
56794;SDS011;42678;59.400;18.410;2022-11-03T13:01:37;11.75;;;1.70;;
56794;SDS011;42678;59.400;18.410;2022-11-03T13:04:03;7.95;;;2.17;;
56794;SDS011;42678;59.400;18.410;2022-11-03T13:06:30;12.75;;;1.67;;
56794;SDS011;42678;59.400;18.410;2022-11-03T13:08:56;16.10;;;2.58;;
56794;SDS011;42678;59.400;18.410;2022-11-03T13:11:21;11.73;;;1.65;;
56794;SDS011;42678;59.400;18.410;2022-11-03T13:14:05;12.55;;;1.98;;
56794;SDS011;42678;59.400;18.410;2022-11-03T13:16:31;11.90;;;1.90;;
56794;SDS011;42678;59.400;18.410;2022-11-03T13:18:57;8.90;;;1.63;;
56794;SDS011;42678;59.400;18.410;2022-11-03T13:21:23;12.75;;;2.35;;
56794;SDS011;42678;59.400;18.410;2022-11-03T13:23:49;13.07;;;2.15;;
56794;SDS011;42678;59.400;18.410;2022-11-03T13:26:14;14.27;;;2.63;;
56794;SDS011;42678;59.400;18.410;2022-11-03T13:28:40;11.02;;;1.70;;
56794;SDS011;42678;59.400;18.410;2022-11-03T13:31:06;11.82;;;1.55;;
56794;SDS011;42678;59.400;18.410;2022-11-03T13:33:32;12.05;;;2.45;;
56794;SDS011;42678;59.400;18.410;2022-11-03T13:35:57;9.02;;;1.77;;
56794;SDS011;42678;59.400;18.410;2022-11-03T13:38:23;11.05;;;2.30;;
56794;SDS011;42678;59.400;18.410;2022-11-03T13:40:48;14.98;;;2.10;;
56794;SDS011;42678;59.400;18.410;2022-11-03T13:43:14;14.82;;;2.67;;
56794;SDS011;42678;59.400;18.410;2022-11-03T13:45:40;11.20;;;2.15;;
56794;SDS011;42678;59.400;18.410;2022-11-03T13:48:05;12.10;;;2.55;;
56794;SDS011;42678;59.400;18.410;2022-11-03T13:50:31;11.10;;;1.85;;
56794;SDS011;42678;59.400;18.410;2022-11-03T13:52:56;10.23;;;1.85;;
56794;SDS011;42678;59.400;18.410;2022-11-03T13:55:22;16.73;;;3.00;;
56794;SDS011;42678;59.400;18.410;2022-11-03T13:57:48;12.43;;;2.42;;
56794;SDS011;42678;59.400;18.410;2022-11-03T14:00:13;11.70;;;2.33;;
56794;SDS011;42678;59.400;18.410;2022-11-03T14:02:41;12.90;;;2.30;;
56794;SDS011;42678;59.400;18.410;2022-11-03T14:05:07;15.10;;;1.92;;
56794;SDS011;42678;59.400;18.410;2022-11-03T14:07:35;8.13;;;1.80;;
56794;SDS011;42678;59.400;18.410;2022-11-03T14:10:02;14.85;;;2.42;;
56794;SDS011;42678;59.400;18.410;2022-11-03T14:12:28;15.57;;;2.10;;
56794;SDS011;42678;59.400;18.410;2022-11-03T14:15:03;11.93;;;1.80;;
56794;SDS011;42678;59.400;18.410;2022-11-03T14:17:31;17.17;;;2.85;;
56794;SDS011;42678;59.400;18.410;2022-11-03T14:19:57;12.70;;;2.53;;
56794;SDS011;42678;59.400;18.410;2022-11-03T14:22:23;12.23;;;2.28;;
56794;SDS011;42678;59.400;18.410;2022-11-03T14:24:52;17.52;;;3.03;;
56794;SDS011;42678;59.400;18.410;2022-11-03T14:27:17;14.50;;;2.85;;
56794;SDS011;42678;59.400;18.410;2022-11-03T14:29:44;13.73;;;1.90;;
56794;SDS011;42678;59.400;18.410;2022-11-03T14:32:13;11.75;;;1.85;;
56794;SDS011;42678;59.400;18.410;2022-11-03T14:34:40;16.23;;;3.25;;
56794;SDS011;42678;59.400;18.410;2022-11-03T14:37:07;14.40;;;2.50;;
56794;SDS011;42678;59.400;18.410;2022-11-03T14:39:33;13.60;;;2.35;;
56794;SDS011;42678;59.400;18.410;2022-11-03T14:42:03;12.98;;;2.20;;
56794;SDS011;42678;59.400;18.410;2022-11-03T14:44:30;19.58;;;2.53;;
56794;SDS011;42678;59.400;18.410;2022-11-03T14:47:00;14.48;;;3.30;;
56794;SDS011;42678;59.400;18.410;2022-11-03T14:49:31;15.75;;;2.83;;
56794;SDS011;42678;59.400;18.410;2022-11-03T14:51:58;11.15;;;1.83;;
56794;SDS011;42678;59.400;18.410;2022-11-03T14:54:25;12.68;;;2.55;;
56794;SDS011;42678;59.400;18.410;2022-11-03T14:56:52;12.27;;;2.83;;
56794;SDS011;42678;59.400;18.410;2022-11-03T14:59:18;28.25;;;4.13;;
56794;SDS011;42678;59.400;18.410;2022-11-03T15:01:44;9.57;;;1.90;;
56794;SDS011;42678;59.400;18.410;2022-11-03T15:04:11;14.60;;;2.92;;
56794;SDS011;42678;59.400;18.410;2022-11-03T15:06:37;10.63;;;1.83;;
56794;SDS011;42678;59.400;18.410;2022-11-03T15:09:04;16.00;;;2.35;;
56794;SDS011;42678;59.400;18.410;2022-11-03T15:11:31;10.07;;;2.15;;
56794;SDS011;42678;59.400;18.410;2022-11-03T15:13:56;10.55;;;1.88;;
56794;SDS011;42678;59.400;18.410;2022-11-03T15:16:22;15.77;;;3.13;;
56794;SDS011;42678;59.400;18.410;2022-11-03T15:18:48;12.15;;;2.13;;
56794;SDS011;42678;59.400;18.410;2022-11-03T15:21:15;10.43;;;2.55;;
56794;SDS011;42678;59.400;18.410;2022-11-03T15:23:41;4.03;;;1.38;;
56794;SDS011;42678;59.400;18.410;2022-11-03T15:26:07;7.32;;;1.83;;
56794;SDS011;42678;59.400;18.410;2022-11-03T15:28:33;16.38;;;4.70;;
56794;SDS011;42678;59.400;18.410;2022-11-03T15:30:59;14.15;;;2.50;;
56794;SDS011;42678;59.400;18.410;2022-11-03T15:33:25;12.15;;;2.67;;
56794;SDS011;42678;59.400;18.410;2022-11-03T15:35:51;13.63;;;2.30;;